Kingston, Rhode Island
Current Conditions -  °F | °C
As of 6:53 AM on Sunday 23 Nov 2014 (Local Time) from KUUU Reporting Station
Overcast Overcast  
Wind Chill: 45°   Ceiling: 8500
Heat Index: 48°   Visibility: 10mi
Dew Point: 32°   Wind: 6mph
Humidity: 54%   Direction: NA
Pressure: 30.16"   Gusts: NA
Location:  41.48°N, 71.52°W
Report Text: KUUU 231153Z AUTO VRB05KT 10SM FEW070 BKN085 OVC100 09/00 A3016 RMK AO2 SLP211 T00890000 10089 20078 53006 $
Loading
Personal Weather Stations






























Interactive Weather Map New forecast layout! Learn more

10-Day Weather Forecast

Advertisements
Track Severe Weather on mobile